sensor_id;sensor_type;location;lat;lon;timestamp;P1;durP1;ratioP1;P2;durP2;ratioP2
20056;SDS011;10189;49.546;7.906;2022-07-22T00:01:37;19.92;;;16.98;;
20056;SDS011;10189;49.546;7.906;2022-07-22T00:04:03;18.17;;;16.40;;
20056;SDS011;10189;49.546;7.906;2022-07-22T00:06:29;17.05;;;15.32;;
20056;SDS011;10189;49.546;7.906;2022-07-22T00:08:55;19.00;;;16.92;;
20056;SDS011;10189;49.546;7.906;2022-07-22T00:11:22;19.27;;;17.27;;
20056;SDS011;10189;49.546;7.906;2022-07-22T00:13:49;18.70;;;16.80;;
20056;SDS011;10189;49.546;7.906;2022-07-22T00:16:15;19.15;;;16.77;;
20056;SDS011;10189;49.546;7.906;2022-07-22T00:18:41;18.63;;;16.77;;
20056;SDS011;10189;49.546;7.906;2022-07-22T00:21:07;19.95;;;17.95;;
20056;SDS011;10189;49.546;7.906;2022-07-22T00:23:33;18.00;;;16.15;;
20056;SDS011;10189;49.546;7.906;2022-07-22T00:25:59;17.95;;;16.15;;
20056;SDS011;10189;49.546;7.906;2022-07-22T00:28:25;18.88;;;16.98;;
20056;SDS011;10189;49.546;7.906;2022-07-22T00:30:51;19.33;;;17.33;;
20056;SDS011;10189;49.546;7.906;2022-07-22T00:33:16;20.45;;;16.85;;
20056;SDS011;10189;49.546;7.906;2022-07-22T00:35:42;17.92;;;16.17;;
20056;SDS011;10189;49.546;7.906;2022-07-22T00:38:08;18.08;;;16.27;;
20056;SDS011;10189;49.546;7.906;2022-07-22T00:40:34;19.85;;;17.52;;
20056;SDS011;10189;49.546;7.906;2022-07-22T00:43:00;18.27;;;16.38;;
20056;SDS011;10189;49.546;7.906;2022-07-22T00:45:27;18.50;;;16.40;;
20056;SDS011;10189;49.546;7.906;2022-07-22T00:47:53;17.17;;;15.32;;
20056;SDS011;10189;49.546;7.906;2022-07-22T00:50:19;17.23;;;15.40;;
20056;SDS011;10189;49.546;7.906;2022-07-22T00:52:46;18.10;;;15.35;;
20056;SDS011;10189;49.546;7.906;2022-07-22T00:55:13;16.02;;;14.13;;
20056;SDS011;10189;49.546;7.906;2022-07-22T00:57:39;18.13;;;15.05;;
20056;SDS011;10189;49.546;7.906;2022-07-22T01:00:07;16.77;;;14.98;;
20056;SDS011;10189;49.546;7.906;2022-07-22T01:02:38;17.63;;;14.60;;
20056;SDS011;10189;49.546;7.906;2022-07-22T01:05:04;16.23;;;14.63;;
20056;SDS011;10189;49.546;7.906;2022-07-22T01:07:31;18.02;;;14.90;;
20056;SDS011;10189;49.546;7.906;2022-07-22T01:09:57;16.90;;;15.30;;
20056;SDS011;10189;49.546;7.906;2022-07-22T01:12:23;18.40;;;14.75;;
20056;SDS011;10189;49.546;7.906;2022-07-22T01:14:50;16.60;;;15.02;;
20056;SDS011;10189;49.546;7.906;2022-07-22T01:17:16;16.67;;;15.07;;
20056;SDS011;10189;49.546;7.906;2022-07-22T01:19:42;18.38;;;15.57;;
20056;SDS011;10189;49.546;7.906;2022-07-22T01:22:08;16.55;;;14.95;;
20056;SDS011;10189;49.546;7.906;2022-07-22T01:24:34;19.48;;;16.20;;
20056;SDS011;10189;49.546;7.906;2022-07-22T01:27:00;18.73;;;16.38;;
20056;SDS011;10189;49.546;7.906;2022-07-22T01:29:27;17.13;;;15.32;;
20056;SDS011;10189;49.546;7.906;2022-07-22T01:31:53;17.15;;;15.35;;
20056;SDS011;10189;49.546;7.906;2022-07-22T01:34:19;17.88;;;15.98;;
20056;SDS011;10189;49.546;7.906;2022-07-22T01:36:46;17.88;;;16.08;;
20056;SDS011;10189;49.546;7.906;2022-07-22T01:39:12;18.50;;;16.42;;
20056;SDS011;10189;49.546;7.906;2022-07-22T01:41:39;18.58;;;16.60;;
20056;SDS011;10189;49.546;7.906;2022-07-22T01:44:08;18.00;;;16.20;;
20056;SDS011;10189;49.546;7.906;2022-07-22T01:46:34;19.15;;;17.05;;
20056;SDS011;10189;49.546;7.906;2022-07-22T01:49:01;19.15;;;16.77;;
20056;SDS011;10189;49.546;7.906;2022-07-22T01:51:32;19.55;;;17.48;;
20056;SDS011;10189;49.546;7.906;2022-07-22T01:53:58;17.40;;;15.15;;
20056;SDS011;10189;49.546;7.906;2022-07-22T01:56:24;18.40;;;16.42;;
20056;SDS011;10189;49.546;7.906;2022-07-22T01:58:49;17.75;;;16.00;;
20056;SDS011;10189;49.546;7.906;2022-07-22T02:01:20;19.40;;;16.67;;
20056;SDS011;10189;49.546;7.906;2022-07-22T02:03:46;18.42;;;15.45;;
20056;SDS011;10189;49.546;7.906;2022-07-22T02:06:12;17.75;;;15.85;;
20056;SDS011;10189;49.546;7.906;2022-07-22T02:08:38;18.45;;;16.50;;
20056;SDS011;10189;49.546;7.906;2022-07-22T02:11:12;19.33;;;16.33;;
20056;SDS011;10189;49.546;7.906;2022-07-22T02:13:54;19.60;;;15.50;;
20056;SDS011;10189;49.546;7.906;2022-07-22T02:16:20;18.98;;;15.18;;
20056;SDS011;10189;49.546;7.906;2022-07-22T02:18:48;18.08;;;16.17;;
20056;SDS011;10189;49.546;7.906;2022-07-22T02:21:15;19.23;;;15.32;;
20056;SDS011;10189;49.546;7.906;2022-07-22T02:23:42;17.08;;;15.00;;
20056;SDS011;10189;49.546;7.906;2022-07-22T02:26:08;17.60;;;15.80;;
20056;SDS011;10189;49.546;7.906;2022-07-22T02:28:34;18.90;;;14.93;;
20056;SDS011;10189;49.546;7.906;2022-07-22T02:31:01;17.70;;;15.48;;
20056;SDS011;10189;49.546;7.906;2022-07-22T02:33:27;18.58;;;15.05;;
20056;SDS011;10189;49.546;7.906;2022-07-22T02:35:56;21.02;;;15.23;;
20056;SDS011;10189;49.546;7.906;2022-07-22T02:38:22;18.42;;;15.02;;
20056;SDS011;10189;49.546;7.906;2022-07-22T02:40:48;17.13;;;15.32;;
20056;SDS011;10189;49.546;7.906;2022-07-22T02:43:14;16.88;;;15.10;;
20056;SDS011;10189;49.546;7.906;2022-07-22T02:45:41;17.00;;;15.20;;
20056;SDS011;10189;49.546;7.906;2022-07-22T02:48:07;18.33;;;16.15;;
20056;SDS011;10189;49.546;7.906;2022-07-22T02:50:36;17.48;;;15.65;;
20056;SDS011;10189;49.546;7.906;2022-07-22T02:53:05;18.00;;;16.20;;
20056;SDS011;10189;49.546;7.906;2022-07-22T02:55:36;18.80;;;16.65;;
20056;SDS011;10189;49.546;7.906;2022-07-22T02:58:04;19.27;;;16.38;;
20056;SDS011;10189;49.546;7.906;2022-07-22T03:00:32;21.05;;;17.17;;
20056;SDS011;10189;49.546;7.906;2022-07-22T03:02:58;18.70;;;16.33;;
20056;SDS011;10189;49.546;7.906;2022-07-22T03:05:24;18.20;;;16.30;;
20056;SDS011;10189;49.546;7.906;2022-07-22T03:07:57;17.40;;;15.65;;
20056;SDS011;10189;49.546;7.906;2022-07-22T03:10:25;19.80;;;17.60;;
20056;SDS011;10189;49.546;7.906;2022-07-22T03:12:50;18.75;;;16.02;;
20056;SDS011;10189;49.546;7.906;2022-07-22T03:15:16;18.63;;;16.83;;
20056;SDS011;10189;49.546;7.906;2022-07-22T03:17:42;19.60;;;17.45;;
20056;SDS011;10189;49.546;7.906;2022-07-22T03:20:09;20.00;;;17.38;;
20056;SDS011;10189;49.546;7.906;2022-07-22T03:22:36;21.25;;;18.80;;
20056;SDS011;10189;49.546;7.906;2022-07-22T03:25:04;21.08;;;17.48;;
20056;SDS011;10189;49.546;7.906;2022-07-22T03:27:30;19.75;;;17.40;;
20056;SDS011;10189;49.546;7.906;2022-07-22T03:29:56;19.52;;;17.42;;
20056;SDS011;10189;49.546;7.906;2022-07-22T03:32:22;22.52;;;19.45;;
20056;SDS011;10189;49.546;7.906;2022-07-22T03:34:48;25.23;;;20.13;;
20056;SDS011;10189;49.546;7.906;2022-07-22T03:37:15;23.38;;;19.08;;
20056;SDS011;10189;49.546;7.906;2022-07-22T03:39:42;24.45;;;20.27;;
20056;SDS011;10189;49.546;7.906;2022-07-22T03:42:10;21.95;;;19.27;;
20056;SDS011;10189;49.546;7.906;2022-07-22T03:44:43;23.58;;;19.73;;
20056;SDS011;10189;49.546;7.906;2022-07-22T03:47:09;20.80;;;18.60;;
20056;SDS011;10189;49.546;7.906;2022-07-22T03:49:38;20.48;;;18.25;;
20056;SDS011;10189;49.546;7.906;2022-07-22T03:52:06;22.52;;;19.02;;
20056;SDS011;10189;49.546;7.906;2022-07-22T03:54:32;21.98;;;18.17;;
20056;SDS011;10189;49.546;7.906;2022-07-22T03:56:58;21.38;;;19.00;;
20056;SDS011;10189;49.546;7.906;2022-07-22T03:59:26;20.08;;;17.92;;
20056;SDS011;10189;49.546;7.906;2022-07-22T04:01:51;19.48;;;17.42;;
20056;SDS011;10189;49.546;7.906;2022-07-22T04:04:18;22.63;;;18.13;;
20056;SDS011;10189;49.546;7.906;2022-07-22T04:06:44;20.80;;;18.58;;
20056;SDS011;10189;49.546;7.906;2022-07-22T04:09:20;21.48;;;18.88;;
20056;SDS011;10189;49.546;7.906;2022-07-22T04:11:47;20.98;;;17.67;;
20056;SDS011;10189;49.546;7.906;2022-07-22T04:14:16;21.52;;;17.75;;
20056;SDS011;10189;49.546;7.906;2022-07-22T04:16:44;22.13;;;18.25;;
20056;SDS011;10189;49.546;7.906;2022-07-22T04:19:11;20.13;;;16.92;;
20056;SDS011;10189;49.546;7.906;2022-07-22T04:21:49;19.52;;;17.27;;
20056;SDS011;10189;49.546;7.906;2022-07-22T04:24:15;22.98;;;18.08;;
20056;SDS011;10189;49.546;7.906;2022-07-22T04:26:41;24.33;;;16.98;;
20056;SDS011;10189;49.546;7.906;2022-07-22T04:29:07;18.10;;;16.30;;
20056;SDS011;10189;49.546;7.906;2022-07-22T04:31:33;18.55;;;16.58;;
20056;SDS011;10189;49.546;7.906;2022-07-22T04:34:04;22.45;;;18.73;;
20056;SDS011;10189;49.546;7.906;2022-07-22T04:36:30;19.23;;;17.25;;
20056;SDS011;10189;49.546;7.906;2022-07-22T04:38:57;20.77;;;18.55;;
20056;SDS011;10189;49.546;7.906;2022-07-22T04:41:24;21.15;;;18.95;;
20056;SDS011;10189;49.546;7.906;2022-07-22T04:43:50;22.23;;;18.27;;
20056;SDS011;10189;49.546;7.906;2022-07-22T04:46:18;22.95;;;18.58;;
20056;SDS011;10189;49.546;7.906;2022-07-22T04:48:44;21.20;;;18.27;;
20056;SDS011;10189;49.546;7.906;2022-07-22T04:51:10;22.38;;;17.75;;
20056;SDS011;10189;49.546;7.906;2022-07-22T04:53:37;19.08;;;17.02;;
20056;SDS011;10189;49.546;7.906;2022-07-22T04:56:03;20.73;;;15.98;;
20056;SDS011;10189;49.546;7.906;2022-07-22T04:58:30;21.13;;;16.63;;
20056;SDS011;10189;49.546;7.906;2022-07-22T05:00:57;18.48;;;16.15;;
20056;SDS011;10189;49.546;7.906;2022-07-22T05:03:23;18.85;;;15.38;;
20056;SDS011;10189;49.546;7.906;2022-07-22T05:05:51;19.42;;;15.60;;
20056;SDS011;10189;49.546;7.906;2022-07-22T05:08:25;17.40;;;14.52;;
20056;SDS011;10189;49.546;7.906;2022-07-22T05:10:52;16.83;;;14.75;;
20056;SDS011;10189;49.546;7.906;2022-07-22T05:13:18;17.83;;;15.38;;
20056;SDS011;10189;49.546;7.906;2022-07-22T05:15:44;17.25;;;14.32;;
20056;SDS011;10189;49.546;7.906;2022-07-22T05:18:10;16.38;;;13.57;;
20056;SDS011;10189;49.546;7.906;2022-07-22T05:20:36;17.27;;;13.55;;
20056;SDS011;10189;49.546;7.906;2022-07-22T05:23:02;16.27;;;13.27;;
20056;SDS011;10189;49.546;7.906;2022-07-22T05:25:31;14.85;;;13.35;;
20056;SDS011;10189;49.546;7.906;2022-07-22T05:27:57;18.77;;;14.23;;
20056;SDS011;10189;49.546;7.906;2022-07-22T05:30:28;15.63;;;13.23;;
20056;SDS011;10189;49.546;7.906;2022-07-22T05:32:54;14.90;;;13.18;;
20056;SDS011;10189;49.546;7.906;2022-07-22T05:35:55;16.38;;;12.85;;
20056;SDS011;10189;49.546;7.906;2022-07-22T05:38:25;14.77;;;12.80;;
20056;SDS011;10189;49.546;7.906;2022-07-22T05:40:50;17.60;;;13.18;;
20056;SDS011;10189;49.546;7.906;2022-07-22T05:43:17;16.05;;;12.77;;
20056;SDS011;10189;49.546;7.906;2022-07-22T05:45:42;19.42;;;12.80;;
20056;SDS011;10189;49.546;7.906;2022-07-22T05:48:09;16.02;;;12.23;;
20056;SDS011;10189;49.546;7.906;2022-07-22T05:50:35;14.90;;;12.32;;
20056;SDS011;10189;49.546;7.906;2022-07-22T05:53:01;13.80;;;11.20;;
20056;SDS011;10189;49.546;7.906;2022-07-22T05:55:28;14.57;;;11.57;;
20056;SDS011;10189;49.546;7.906;2022-07-22T05:57:54;13.68;;;11.82;;
20056;SDS011;10189;49.546;7.906;2022-07-22T06:00:20;12.82;;;11.52;;
20056;SDS011;10189;49.546;7.906;2022-07-22T06:02:46;14.40;;;11.68;;
20056;SDS011;10189;49.546;7.906;2022-07-22T06:05:17;12.77;;;10.77;;
20056;SDS011;10189;49.546;7.906;2022-07-22T06:07:43;13.25;;;11.85;;
20056;SDS011;10189;49.546;7.906;2022-07-22T06:10:14;15.43;;;11.27;;
20056;SDS011;10189;49.546;7.906;2022-07-22T06:12:40;14.50;;;11.50;;
20056;SDS011;10189;49.546;7.906;2022-07-22T06:15:06;14.50;;;12.25;;
20056;SDS011;10189;49.546;7.906;2022-07-22T06:17:32;16.10;;;12.00;;
20056;SDS011;10189;49.546;7.906;2022-07-22T06:20:01;12.90;;;11.48;;
20056;SDS011;10189;49.546;7.906;2022-07-22T06:22:28;16.90;;;13.02;;
20056;SDS011;10189;49.546;7.906;2022-07-22T06:24:54;17.38;;;12.40;;
20056;SDS011;10189;49.546;7.906;2022-07-22T06:27:20;16.75;;;14.02;;
20056;SDS011;10189;49.546;7.906;2022-07-22T06:29:48;14.75;;;11.82;;
20056;SDS011;10189;49.546;7.906;2022-07-22T06:32:14;14.70;;;12.52;;
20056;SDS011;10189;49.546;7.906;2022-07-22T06:34:40;16.00;;;11.57;;
20056;SDS011;10189;49.546;7.906;2022-07-22T06:37:06;15.60;;;12.13;;
20056;SDS011;10189;49.546;7.906;2022-07-22T06:39:33;16.35;;;13.07;;
20056;SDS011;10189;49.546;7.906;2022-07-22T06:42:11;15.93;;;12.35;;
20056;SDS011;10189;49.546;7.906;2022-07-22T06:44:53;12.65;;;11.27;;
20056;SDS011;10189;49.546;7.906;2022-07-22T06:47:33;15.30;;;11.60;;
20056;SDS011;10189;49.546;7.906;2022-07-22T06:50:02;12.60;;;11.30;;
20056;SDS011;10189;49.546;7.906;2022-07-22T06:52:30;14.10;;;11.57;;
20056;SDS011;10189;49.546;7.906;2022-07-22T06:54:59;14.35;;;11.65;;
20056;SDS011;10189;49.546;7.906;2022-07-22T06:57:30;14.35;;;12.23;;
20056;SDS011;10189;49.546;7.906;2022-07-22T06:59:57;13.95;;;11.23;;
20056;SDS011;10189;49.546;7.906;2022-07-22T07:02:24;13.88;;;11.68;;
20056;SDS011;10189;49.546;7.906;2022-07-22T07:04:50;16.20;;;13.23;;
20056;SDS011;10189;49.546;7.906;2022-07-22T07:07:17;14.68;;;12.32;;
20056;SDS011;10189;49.546;7.906;2022-07-22T07:09:51;13.55;;;12.15;;
20056;SDS011;10189;49.546;7.906;2022-07-22T07:12:43;12.40;;;11.20;;
20056;SDS011;10189;49.546;7.906;2022-07-22T07:15:09;14.38;;;12.07;;
20056;SDS011;10189;49.546;7.906;2022-07-22T07:17:37;15.32;;;11.88;;
20056;SDS011;10189;49.546;7.906;2022-07-22T07:20:06;14.50;;;12.02;;
20056;SDS011;10189;49.546;7.906;2022-07-22T07:22:33;15.43;;;12.35;;
20056;SDS011;10189;49.546;7.906;2022-07-22T07:25:06;13.55;;;11.90;;
20056;SDS011;10189;49.546;7.906;2022-07-22T07:27:34;16.48;;;12.15;;
20056;SDS011;10189;49.546;7.906;2022-07-22T07:30:04;17.95;;;14.02;;
20056;SDS011;10189;49.546;7.906;2022-07-22T07:32:34;18.45;;;13.27;;
20056;SDS011;10189;49.546;7.906;2022-07-22T07:35:02;14.85;;;11.95;;
20056;SDS011;10189;49.546;7.906;2022-07-22T07:37:29;14.38;;;12.10;;
20056;SDS011;10189;49.546;7.906;2022-07-22T07:39:56;14.50;;;12.18;;
20056;SDS011;10189;49.546;7.906;2022-07-22T07:42:23;14.68;;;12.07;;
20056;SDS011;10189;49.546;7.906;2022-07-22T07:44:49;13.25;;;11.18;;
20056;SDS011;10189;49.546;7.906;2022-07-22T07:47:16;16.58;;;12.23;;
20056;SDS011;10189;49.546;7.906;2022-07-22T07:49:44;15.23;;;11.98;;
20056;SDS011;10189;49.546;7.906;2022-07-22T07:52:12;16.52;;;13.48;;
20056;SDS011;10189;49.546;7.906;2022-07-22T07:54:39;15.10;;;11.63;;
20056;SDS011;10189;49.546;7.906;2022-07-22T07:57:07;13.77;;;12.07;;
20056;SDS011;10189;49.546;7.906;2022-07-22T07:59:37;16.63;;;12.43;;
20056;SDS011;10189;49.546;7.906;2022-07-22T08:02:05;13.88;;;10.77;;
20056;SDS011;10189;49.546;7.906;2022-07-22T08:04:32;16.33;;;11.98;;
20056;SDS011;10189;49.546;7.906;2022-07-22T08:07:03;12.45;;;11.15;;
20056;SDS011;10189;49.546;7.906;2022-07-22T08:09:31;13.35;;;11.02;;
20056;SDS011;10189;49.546;7.906;2022-07-22T08:12:02;14.55;;;11.15;;
20056;SDS011;10189;49.546;7.906;2022-07-22T08:14:50;13.23;;;11.43;;
20056;SDS011;10189;49.546;7.906;2022-07-22T08:17:25;14.07;;;10.38;;
20056;SDS011;10189;49.546;7.906;2022-07-22T08:19:51;12.18;;;10.80;;
20056;SDS011;10189;49.546;7.906;2022-07-22T08:22:17;13.85;;;10.95;;
20056;SDS011;10189;49.546;7.906;2022-07-22T08:24:45;12.43;;;10.60;;
20056;SDS011;10189;49.546;7.906;2022-07-22T08:27:14;11.35;;;10.15;;
20056;SDS011;10189;49.546;7.906;2022-07-22T08:29:40;16.63;;;11.48;;
20056;SDS011;10189;49.546;7.906;2022-07-22T08:32:06;12.52;;;10.32;;
20056;SDS011;10189;49.546;7.906;2022-07-22T08:34:33;13.30;;;10.52;;
20056;SDS011;10189;49.546;7.906;2022-07-22T08:37:00;10.93;;;9.52;;
20056;SDS011;10189;49.546;7.906;2022-07-22T08:39:26;14.10;;;10.55;;
20056;SDS011;10189;49.546;7.906;2022-07-22T08:41:52;12.57;;;9.60;;
20056;SDS011;10189;49.546;7.906;2022-07-22T08:44:23;13.75;;;10.77;;
20056;SDS011;10189;49.546;7.906;2022-07-22T08:46:49;13.98;;;9.23;;
20056;SDS011;10189;49.546;7.906;2022-07-22T08:49:18;11.90;;;9.70;;
20056;SDS011;10189;49.546;7.906;2022-07-22T08:51:52;13.07;;;10.15;;
20056;SDS011;10189;49.546;7.906;2022-07-22T08:54:27;11.07;;;9.40;;
20056;SDS011;10189;49.546;7.906;2022-07-22T08:56:56;10.75;;;9.25;;
20056;SDS011;10189;49.546;7.906;2022-07-22T08:59:23;10.75;;;8.90;;
20056;SDS011;10189;49.546;7.906;2022-07-22T09:04:54;11.35;;;9.38;;
20056;SDS011;10189;49.546;7.906;2022-07-22T09:07:27;11.77;;;9.88;;
20056;SDS011;10189;49.546;7.906;2022-07-22T09:10:19;10.65;;;8.77;;
20056;SDS011;10189;49.546;7.906;2022-07-22T09:13:15;11.95;;;9.40;;
20056;SDS011;10189;49.546;7.906;2022-07-22T09:15:49;10.88;;;9.25;;
20056;SDS011;10189;49.546;7.906;2022-07-22T09:21:21;9.82;;;8.82;;
20056;SDS011;10189;49.546;7.906;2022-07-22T09:24:06;10.68;;;9.30;;
20056;SDS011;10189;49.546;7.906;2022-07-22T09:26:38;11.93;;;9.52;;
20056;SDS011;10189;49.546;7.906;2022-07-22T09:29:23;10.23;;;9.23;;
20056;SDS011;10189;49.546;7.906;2022-07-22T09:32:22;10.30;;;8.90;;
20056;SDS011;10189;49.546;7.906;2022-07-22T09:34:51;11.32;;;8.50;;
20056;SDS011;10189;49.546;7.906;2022-07-22T09:37:33;10.57;;;8.77;;
20056;SDS011;10189;49.546;7.906;2022-07-22T09:40:16;9.73;;;8.40;;
20056;SDS011;10189;49.546;7.906;2022-07-22T09:42:54;12.23;;;8.82;;
20056;SDS011;10189;49.546;7.906;2022-07-22T09:45:27;10.02;;;8.52;;
20056;SDS011;10189;49.546;7.906;2022-07-22T09:47:57;10.73;;;8.88;;
20056;SDS011;10189;49.546;7.906;2022-07-22T09:50:44;10.65;;;8.50;;
20056;SDS011;10189;49.546;7.906;2022-07-22T09:55:48;9.55;;;7.95;;
20056;SDS011;10189;49.546;7.906;2022-07-22T09:58:15;9.23;;;8.27;;
20056;SDS011;10189;49.546;7.906;2022-07-22T10:00:42;11.25;;;8.38;;
20056;SDS011;10189;49.546;7.906;2022-07-22T10:03:17;10.38;;;8.80;;
20056;SDS011;10189;49.546;7.906;2022-07-22T10:05:57;9.52;;;7.95;;
20056;SDS011;10189;49.546;7.906;2022-07-22T10:08:25;11.50;;;8.85;;
20056;SDS011;10189;49.546;7.906;2022-07-22T10:10:53;9.82;;;8.35;;
20056;SDS011;10189;49.546;7.906;2022-07-22T10:13:24;9.40;;;8.00;;
20056;SDS011;10189;49.546;7.906;2022-07-22T10:15:51;11.63;;;8.13;;
20056;SDS011;10189;49.546;7.906;2022-07-22T10:18:20;10.23;;;8.90;;
20056;SDS011;10189;49.546;7.906;2022-07-22T10:20:48;9.13;;;8.23;;
20056;SDS011;10189;49.546;7.906;2022-07-22T10:23:32;10.88;;;8.00;;
20056;SDS011;10189;49.546;7.906;2022-07-22T10:25:58;8.68;;;7.78;;
20056;SDS011;10189;49.546;7.906;2022-07-22T10:28:30;9.55;;;7.47;;
20056;SDS011;10189;49.546;7.906;2022-07-22T10:33:53;10.50;;;8.55;;
20056;SDS011;10189;49.546;7.906;2022-07-22T10:39:07;9.02;;;8.07;;
20056;SDS011;10189;49.546;7.906;2022-07-22T10:41:43;9.27;;;7.80;;
20056;SDS011;10189;49.546;7.906;2022-07-22T10:44:10;8.75;;;7.88;;
20056;SDS011;10189;49.546;7.906;2022-07-22T10:46:50;8.95;;;7.60;;
20056;SDS011;10189;49.546;7.906;2022-07-22T10:49:21;8.93;;;8.02;;
20056;SDS011;10189;49.546;7.906;2022-07-22T10:52:08;12.43;;;8.77;;
20056;SDS011;10189;49.546;7.906;2022-07-22T10:55:16;10.80;;;7.80;;
20056;SDS011;10189;49.546;7.906;2022-07-22T10:57:47;13.13;;;9.00;;
20056;SDS011;10189;49.546;7.906;2022-07-22T11:00:16;11.32;;;8.65;;
20056;SDS011;10189;49.546;7.906;2022-07-22T11:02:42;10.82;;;8.10;;
20056;SDS011;10189;49.546;7.906;2022-07-22T11:05:08;9.25;;;8.27;;
20056;SDS011;10189;49.546;7.906;2022-07-22T11:07:41;9.02;;;8.00;;
20056;SDS011;10189;49.546;7.906;2022-07-22T11:10:15;9.73;;;8.70;;
20056;SDS011;10189;49.546;7.906;2022-07-22T11:12:45;9.38;;;8.48;;
20056;SDS011;10189;49.546;7.906;2022-07-22T11:15:13;9.95;;;8.50;;
20056;SDS011;10189;49.546;7.906;2022-07-22T11:17:40;9.57;;;8.15;;
20056;SDS011;10189;49.546;7.906;2022-07-22T11:20:07;13.52;;;8.05;;
20056;SDS011;10189;49.546;7.906;2022-07-22T11:22:36;11.97;;;8.73;;
20056;SDS011;10189;49.546;7.906;2022-07-22T11:25:05;10.27;;;8.52;;
20056;SDS011;10189;49.546;7.906;2022-07-22T11:27:35;10.60;;;8.52;;
20056;SDS011;10189;49.546;7.906;2022-07-22T11:30:01;9.63;;;8.73;;
20056;SDS011;10189;49.546;7.906;2022-07-22T11:32:29;11.32;;;8.73;;
20056;SDS011;10189;49.546;7.906;2022-07-22T11:34:57;10.43;;;8.27;;
20056;SDS011;10189;49.546;7.906;2022-07-22T11:37:25;8.15;;;7.35;;
20056;SDS011;10189;49.546;7.906;2022-07-22T11:40:00;9.45;;;8.00;;
20056;SDS011;10189;49.546;7.906;2022-07-22T11:42:30;9.82;;;8.20;;
20056;SDS011;10189;49.546;7.906;2022-07-22T11:44:56;10.43;;;8.23;;
20056;SDS011;10189;49.546;7.906;2022-07-22T11:47:23;9.77;;;7.95;;
20056;SDS011;10189;49.546;7.906;2022-07-22T11:49:49;12.27;;;8.25;;
20056;SDS011;10189;49.546;7.906;2022-07-22T11:52:14;9.40;;;8.50;;
20056;SDS011;10189;49.546;7.906;2022-07-22T11:54:42;9.98;;;8.98;;
20056;SDS011;10189;49.546;7.906;2022-07-22T11:57:09;9.85;;;8.68;;
20056;SDS011;10189;49.546;7.906;2022-07-22T11:59:37;10.30;;;8.93;;
20056;SDS011;10189;49.546;7.906;2022-07-22T12:02:04;10.35;;;9.05;;
20056;SDS011;10189;49.546;7.906;2022-07-22T12:04:33;8.80;;;7.88;;
20056;SDS011;10189;49.546;7.906;2022-07-22T12:07:00;10.32;;;8.15;;
20056;SDS011;10189;49.546;7.906;2022-07-22T12:09:34;9.70;;;8.68;;
20056;SDS011;10189;49.546;7.906;2022-07-22T12:12:03;8.77;;;7.88;;
20056;SDS011;10189;49.546;7.906;2022-07-22T12:14:32;10.80;;;8.00;;
20056;SDS011;10189;49.546;7.906;2022-07-22T12:17:09;11.63;;;8.10;;
20056;SDS011;10189;49.546;7.906;2022-07-22T12:19:36;9.40;;;8.55;;
20056;SDS011;10189;49.546;7.906;2022-07-22T12:22:05;10.77;;;8.25;;
20056;SDS011;10189;49.546;7.906;2022-07-22T12:24:35;12.40;;;8.60;;
20056;SDS011;10189;49.546;7.906;2022-07-22T12:27:13;10.07;;;8.73;;
20056;SDS011;10189;49.546;7.906;2022-07-22T12:29:42;11.18;;;7.75;;
20056;SDS011;10189;49.546;7.906;2022-07-22T12:32:15;9.63;;;7.80;;
20056;SDS011;10189;49.546;7.906;2022-07-22T12:37:28;11.35;;;8.57;;
20056;SDS011;10189;49.546;7.906;2022-07-22T12:40:10;9.52;;;8.23;;
20056;SDS011;10189;49.546;7.906;2022-07-22T12:42:44;9.00;;;8.10;;
20056;SDS011;10189;49.546;7.906;2022-07-22T12:45:23;11.52;;;8.85;;
20056;SDS011;10189;49.546;7.906;2022-07-22T12:47:54;11.82;;;8.23;;
20056;SDS011;10189;49.546;7.906;2022-07-22T12:50:30;9.85;;;8.57;;
20056;SDS011;10189;49.546;7.906;2022-07-22T12:53:04;9.63;;;8.73;;
20056;SDS011;10189;49.546;7.906;2022-07-22T12:55:33;9.05;;;8.18;;
20056;SDS011;10189;49.546;7.906;2022-07-22T12:58:02;8.85;;;8.07;;
20056;SDS011;10189;49.546;7.906;2022-07-22T13:00:34;9.35;;;8.50;;
20056;SDS011;10189;49.546;7.906;2022-07-22T13:03:06;9.38;;;8.48;;
20056;SDS011;10189;49.546;7.906;2022-07-22T13:05:32;9.57;;;8.70;;
20056;SDS011;10189;49.546;7.906;2022-07-22T13:08:00;9.55;;;8.50;;
20056;SDS011;10189;49.546;7.906;2022-07-22T13:10:27;9.93;;;8.38;;
20056;SDS011;10189;49.546;7.906;2022-07-22T13:12:54;8.98;;;8.10;;
20056;SDS011;10189;49.546;7.906;2022-07-22T13:15:20;9.52;;;8.73;;
20056;SDS011;10189;49.546;7.906;2022-07-22T13:17:47;9.80;;;8.32;;
20056;SDS011;10189;49.546;7.906;2022-07-22T13:20:15;9.13;;;8.32;;
20056;SDS011;10189;49.546;7.906;2022-07-22T13:22:42;9.45;;;8.45;;
20056;SDS011;10189;49.546;7.906;2022-07-22T13:25:14;10.38;;;9.00;;
20056;SDS011;10189;49.546;7.906;2022-07-22T13:27:40;9.40;;;8.45;;
20056;SDS011;10189;49.546;7.906;2022-07-22T13:30:06;9.52;;;8.57;;
20056;SDS011;10189;49.546;7.906;2022-07-22T13:32:33;9.75;;;8.75;;
20056;SDS011;10189;49.546;7.906;2022-07-22T13:34:58;9.50;;;8.57;;
20056;SDS011;10189;49.546;7.906;2022-07-22T13:37:24;9.15;;;8.05;;
20056;SDS011;10189;49.546;7.906;2022-07-22T13:39:50;9.95;;;8.70;;
20056;SDS011;10189;49.546;7.906;2022-07-22T13:42:17;10.43;;;8.63;;
20056;SDS011;10189;49.546;7.906;2022-07-22T13:44:47;9.98;;;8.32;;
20056;SDS011;10189;49.546;7.906;2022-07-22T13:47:16;9.15;;;8.32;;
20056;SDS011;10189;49.546;7.906;2022-07-22T13:49:43;9.25;;;8.35;;
20056;SDS011;10189;49.546;7.906;2022-07-22T13:52:11;9.82;;;8.52;;
20056;SDS011;10189;49.546;7.906;2022-07-22T13:54:38;9.95;;;8.93;;
20056;SDS011;10189;49.546;7.906;2022-07-22T13:57:05;11.82;;;8.98;;
20056;SDS011;10189;49.546;7.906;2022-07-22T13:59:31;9.20;;;8.32;;
20056;SDS011;10189;49.546;7.906;2022-07-22T14:01:57;11.77;;;8.45;;
20056;SDS011;10189;49.546;7.906;2022-07-22T14:04:25;11.25;;;8.75;;
20056;SDS011;10189;49.546;7.906;2022-07-22T14:06:52;9.48;;;8.50;;
20056;SDS011;10189;49.546;7.906;2022-07-22T14:09:18;9.20;;;8.40;;
20056;SDS011;10189;49.546;7.906;2022-07-22T14:11:44;10.55;;;8.27;;
20056;SDS011;10189;49.546;7.906;2022-07-22T14:14:10;9.07;;;8.27;;
20056;SDS011;10189;49.546;7.906;2022-07-22T14:16:36;19.80;;;17.50;;
20056;SDS011;10189;49.546;7.906;2022-07-22T14:19:03;21.30;;;19.38;;
20056;SDS011;10189;49.546;7.906;2022-07-22T14:21:36;9.98;;;9.07;;
20056;SDS011;10189;49.546;7.906;2022-07-22T14:24:05;9.55;;;8.63;;
20056;SDS011;10189;49.546;7.906;2022-07-22T14:26:33;8.95;;;8.15;;
20056;SDS011;10189;49.546;7.906;2022-07-22T14:29:00;9.38;;;8.45;;
20056;SDS011;10189;49.546;7.906;2022-07-22T14:31:27;9.38;;;8.48;;
20056;SDS011;10189;49.546;7.906;2022-07-22T14:33:54;8.80;;;8.10;;
20056;SDS011;10189;49.546;7.906;2022-07-22T14:36:21;9.68;;;8.82;;
20056;SDS011;10189;49.546;7.906;2022-07-22T14:38:47;10.80;;;8.65;;
20056;SDS011;10189;49.546;7.906;2022-07-22T14:41:15;9.07;;;8.18;;
20056;SDS011;10189;49.546;7.906;2022-07-22T14:43:42;9.23;;;8.32;;
20056;SDS011;10189;49.546;7.906;2022-07-22T14:46:08;9.10;;;8.20;;
20056;SDS011;10189;49.546;7.906;2022-07-22T14:48:36;8.63;;;7.90;;
20056;SDS011;10189;49.546;7.906;2022-07-22T14:51:06;10.60;;;8.13;;
20056;SDS011;10189;49.546;7.906;2022-07-22T14:53:33;9.63;;;8.05;;
20056;SDS011;10189;49.546;7.906;2022-07-22T14:55:59;9.13;;;8.32;;